sensor_id;sensor_type;location;lat;lon;timestamp;temperature;humidity
33865;DHT22;20159;51.072;13.526;2023-03-16T00:01:17;1.40;92.00
33865;DHT22;20159;51.072;13.526;2023-03-16T00:03:42;2.10;92.20
33865;DHT22;20159;51.072;13.526;2023-03-16T00:06:08;1.30;92.10
33865;DHT22;20159;51.072;13.526;2023-03-16T00:08:33;1.40;92.10
33865;DHT22;20159;51.072;13.526;2023-03-16T00:11:00;1.30;92.20
33865;DHT22;20159;51.072;13.526;2023-03-16T00:13:27;1.30;92.10
33865;DHT22;20159;51.072;13.526;2023-03-16T00:15:55;1.30;92.00
33865;DHT22;20159;51.072;13.526;2023-03-16T00:18:23;1.30;92.00
33865;DHT22;20159;51.072;13.526;2023-03-16T00:20:58;1.30;92.10
33865;DHT22;20159;51.072;13.526;2023-03-16T00:23:27;1.20;92.20
33865;DHT22;20159;51.072;13.526;2023-03-16T00:25:57;1.20;92.10
33865;DHT22;20159;51.072;13.526;2023-03-16T00:28:24;1.10;92.30
33865;DHT22;20159;51.072;13.526;2023-03-16T00:30:50;1.20;92.30
33865;DHT22;20159;51.072;13.526;2023-03-16T00:33:16;1.20;92.30
33865;DHT22;20159;51.072;13.526;2023-03-16T00:35:45;1.20;92.40
33865;DHT22;20159;51.072;13.526;2023-03-16T00:38:18;1.10;92.40
33865;DHT22;20159;51.072;13.526;2023-03-16T00:40:44;1.10;92.30
33865;DHT22;20159;51.072;13.526;2023-03-16T00:43:10;1.10;92.40
33865;DHT22;20159;51.072;13.526;2023-03-16T00:45:36;1.10;92.40
33865;DHT22;20159;51.072;13.526;2023-03-16T00:48:01;1.10;92.40
33865;DHT22;20159;51.072;13.526;2023-03-16T00:50:27;1.10;92.40
33865;DHT22;20159;51.072;13.526;2023-03-16T00:52:52;1.10;92.40
33865;DHT22;20159;51.072;13.526;2023-03-16T00:55:19;1.10;92.40
33865;DHT22;20159;51.072;13.526;2023-03-16T00:57:45;1.10;92.40
33865;DHT22;20159;51.072;13.526;2023-03-16T01:00:11;1.10;92.50
33865;DHT22;20159;51.072;13.526;2023-03-16T01:02:40;1.10;92.50
33865;DHT22;20159;51.072;13.526;2023-03-16T01:05:07;1.10;92.40
33865;DHT22;20159;51.072;13.526;2023-03-16T01:07:33;1.10;92.40
33865;DHT22;20159;51.072;13.526;2023-03-16T01:10:00;1.10;92.30
33865;DHT22;20159;51.072;13.526;2023-03-16T01:12:26;1.10;92.30
33865;DHT22;20159;51.072;13.526;2023-03-16T01:14:52;1.10;92.40
33865;DHT22;20159;51.072;13.526;2023-03-16T01:17:18;1.20;92.30
33865;DHT22;20159;51.072;13.526;2023-03-16T01:19:44;1.70;92.50
33865;DHT22;20159;51.072;13.526;2023-03-16T01:22:10;1.10;92.40
33865;DHT22;20159;51.072;13.526;2023-03-16T01:24:36;1.20;92.60
33865;DHT22;20159;51.072;13.526;2023-03-16T01:27:03;1.20;92.40
33865;DHT22;20159;51.072;13.526;2023-03-16T01:29:29;1.20;92.40
33865;DHT22;20159;51.072;13.526;2023-03-16T01:31:55;1.20;92.30
33865;DHT22;20159;51.072;13.526;2023-03-16T01:34:21;1.20;92.20
33865;DHT22;20159;51.072;13.526;2023-03-16T01:36:47;1.20;92.20
33865;DHT22;20159;51.072;13.526;2023-03-16T01:39:14;1.20;92.20
33865;DHT22;20159;51.072;13.526;2023-03-16T01:41:40;1.20;92.40
33865;DHT22;20159;51.072;13.526;2023-03-16T01:44:13;1.10;92.20
33865;DHT22;20159;51.072;13.526;2023-03-16T01:46:40;1.20;92.20
33865;DHT22;20159;51.072;13.526;2023-03-16T01:49:24;1.20;92.20
33865;DHT22;20159;51.072;13.526;2023-03-16T01:52:06;1.20;92.20
33865;DHT22;20159;51.072;13.526;2023-03-16T01:54:42;1.20;92.40
33865;DHT22;20159;51.072;13.526;2023-03-16T01:57:11;1.20;92.40
33865;DHT22;20159;51.072;13.526;2023-03-16T01:59:47;1.20;92.30
33865;DHT22;20159;51.072;13.526;2023-03-16T02:02:15;1.20;92.30
33865;DHT22;20159;51.072;13.526;2023-03-16T02:05:09;1.20;92.60
33865;DHT22;20159;51.072;13.526;2023-03-16T02:07:42;1.10;92.40
33865;DHT22;20159;51.072;13.526;2023-03-16T02:10:10;1.10;92.20
33865;DHT22;20159;51.072;13.526;2023-03-16T02:12:36;1.10;92.20
33865;DHT22;20159;51.072;13.526;2023-03-16T02:15:02;1.10;92.20
33865;DHT22;20159;51.072;13.526;2023-03-16T02:17:30;1.10;92.30
33865;DHT22;20159;51.072;13.526;2023-03-16T02:22:46;1.10;92.30
33865;DHT22;20159;51.072;13.526;2023-03-16T02:25:16;1.10;92.20
33865;DHT22;20159;51.072;13.526;2023-03-16T02:27:56;1.00;92.40
33865;DHT22;20159;51.072;13.526;2023-03-16T02:30:25;1.00;92.40
33865;DHT22;20159;51.072;13.526;2023-03-16T02:32:51;1.00;92.30
33865;DHT22;20159;51.072;13.526;2023-03-16T02:35:18;1.00;92.30
33865;DHT22;20159;51.072;13.526;2023-03-16T02:37:43;1.00;92.30
33865;DHT22;20159;51.072;13.526;2023-03-16T02:40:20;0.90;92.40
33865;DHT22;20159;51.072;13.526;2023-03-16T02:42:52;0.90;92.50
33865;DHT22;20159;51.072;13.526;2023-03-16T02:45:20;0.90;92.50
33865;DHT22;20159;51.072;13.526;2023-03-16T02:47:46;0.90;92.50
33865;DHT22;20159;51.072;13.526;2023-03-16T02:50:15;0.90;92.50
33865;DHT22;20159;51.072;13.526;2023-03-16T02:52:41;0.90;92.60
33865;DHT22;20159;51.072;13.526;2023-03-16T02:55:07;0.80;92.60
33865;DHT22;20159;51.072;13.526;2023-03-16T02:57:33;0.80;92.70
33865;DHT22;20159;51.072;13.526;2023-03-16T02:59:59;0.80;92.70
33865;DHT22;20159;51.072;13.526;2023-03-16T03:02:25;0.80;92.70
33865;DHT22;20159;51.072;13.526;2023-03-16T03:04:51;0.80;92.70
33865;DHT22;20159;51.072;13.526;2023-03-16T03:07:20;0.80;92.70
33865;DHT22;20159;51.072;13.526;2023-03-16T03:09:45;0.80;92.60
33865;DHT22;20159;51.072;13.526;2023-03-16T03:12:11;0.80;92.50
33865;DHT22;20159;51.072;13.526;2023-03-16T03:14:37;0.70;92.50
33865;DHT22;20159;51.072;13.526;2023-03-16T03:17:07;0.70;92.60
33865;DHT22;20159;51.072;13.526;2023-03-16T03:19:33;0.70;92.60
33865;DHT22;20159;51.072;13.526;2023-03-16T03:22:00;0.70;92.60
33865;DHT22;20159;51.072;13.526;2023-03-16T03:24:29;0.70;92.70
33865;DHT22;20159;51.072;13.526;2023-03-16T03:26:54;0.60;92.70
33865;DHT22;20159;51.072;13.526;2023-03-16T03:29:20;0.60;92.80
33865;DHT22;20159;51.072;13.526;2023-03-16T03:31:46;0.60;92.90
33865;DHT22;20159;51.072;13.526;2023-03-16T03:34:11;0.60;93.00
33865;DHT22;20159;51.072;13.526;2023-03-16T03:36:37;0.60;93.10
33865;DHT22;20159;51.072;13.526;2023-03-16T03:39:02;0.60;92.90
33865;DHT22;20159;51.072;13.526;2023-03-16T03:41:32;0.60;92.90
33865;DHT22;20159;51.072;13.526;2023-03-16T03:43:59;0.60;92.90
33865;DHT22;20159;51.072;13.526;2023-03-16T03:46:25;0.60;92.90
33865;DHT22;20159;51.072;13.526;2023-03-16T03:48:51;0.60;92.90
33865;DHT22;20159;51.072;13.526;2023-03-16T03:51:16;0.60;92.90
33865;DHT22;20159;51.072;13.526;2023-03-16T03:53:42;0.60;92.90
33865;DHT22;20159;51.072;13.526;2023-03-16T03:56:08;1.50;93.20
33865;DHT22;20159;51.072;13.526;2023-03-16T03:58:34;0.60;93.00
33865;DHT22;20159;51.072;13.526;2023-03-16T04:00:59;0.60;93.00
33865;DHT22;20159;51.072;13.526;2023-03-16T04:03:25;0.60;93.00
33865;DHT22;20159;51.072;13.526;2023-03-16T04:05:50;0.60;93.10
33865;DHT22;20159;51.072;13.526;2023-03-16T04:08:16;0.60;93.10
33865;DHT22;20159;51.072;13.526;2023-03-16T04:10:41;0.60;93.10
33865;DHT22;20159;51.072;13.526;2023-03-16T04:13:07;0.60;93.00
33865;DHT22;20159;51.072;13.526;2023-03-16T04:15:32;0.70;93.00
33865;DHT22;20159;51.072;13.526;2023-03-16T04:17:58;0.70;93.00
33865;DHT22;20159;51.072;13.526;2023-03-16T04:20:24;0.70;92.90
33865;DHT22;20159;51.072;13.526;2023-03-16T04:22:49;0.60;92.80
33865;DHT22;20159;51.072;13.526;2023-03-16T04:25:23;0.60;92.80
33865;DHT22;20159;51.072;13.526;2023-03-16T04:27:49;0.60;92.70
33865;DHT22;20159;51.072;13.526;2023-03-16T04:30:15;0.60;92.80
33865;DHT22;20159;51.072;13.526;2023-03-16T04:32:41;0.60;92.90
33865;DHT22;20159;51.072;13.526;2023-03-16T04:35:07;0.60;92.90
33865;DHT22;20159;51.072;13.526;2023-03-16T04:37:33;0.60;92.90
33865;DHT22;20159;51.072;13.526;2023-03-16T04:39:59;0.60;92.90
33865;DHT22;20159;51.072;13.526;2023-03-16T04:42:24;0.60;92.90
33865;DHT22;20159;51.072;13.526;2023-03-16T04:44:49;0.60;93.00
33865;DHT22;20159;51.072;13.526;2023-03-16T04:47:16;0.60;92.80
33865;DHT22;20159;51.072;13.526;2023-03-16T04:49:42;0.60;92.70
33865;DHT22;20159;51.072;13.526;2023-03-16T04:52:08;0.60;92.70
33865;DHT22;20159;51.072;13.526;2023-03-16T04:54:34;0.60;92.70
33865;DHT22;20159;51.072;13.526;2023-03-16T04:57:00;0.60;92.60
33865;DHT22;20159;51.072;13.526;2023-03-16T04:59:28;0.50;92.50
33865;DHT22;20159;51.072;13.526;2023-03-16T05:01:53;0.50;92.50
33865;DHT22;20159;51.072;13.526;2023-03-16T05:04:19;0.40;92.20
33865;DHT22;20159;51.072;13.526;2023-03-16T05:06:47;0.60;92.20
33865;DHT22;20159;51.072;13.526;2023-03-16T05:09:13;0.40;92.10
33865;DHT22;20159;51.072;13.526;2023-03-16T05:11:38;0.30;92.20
33865;DHT22;20159;51.072;13.526;2023-03-16T05:14:04;0.20;92.20
33865;DHT22;20159;51.072;13.526;2023-03-16T05:16:30;0.20;92.40
33865;DHT22;20159;51.072;13.526;2023-03-16T05:19:00;0.20;92.50
33865;DHT22;20159;51.072;13.526;2023-03-16T05:21:26;0.10;92.50
33865;DHT22;20159;51.072;13.526;2023-03-16T05:23:52;0.10;92.60
33865;DHT22;20159;51.072;13.526;2023-03-16T05:26:18;0.10;92.70
33865;DHT22;20159;51.072;13.526;2023-03-16T05:28:44;0.00;92.80
33865;DHT22;20159;51.072;13.526;2023-03-16T05:31:10;0.00;92.80
33865;DHT22;20159;51.072;13.526;2023-03-16T05:33:36;0.00;92.60
33865;DHT22;20159;51.072;13.526;2023-03-16T05:36:02;0.00;92.60
33865;DHT22;20159;51.072;13.526;2023-03-16T05:38:28;-0.10;92.60
33865;DHT22;20159;51.072;13.526;2023-03-16T05:40:56;-0.10;92.60
33865;DHT22;20159;51.072;13.526;2023-03-16T05:43:25;-0.10;92.70
33865;DHT22;20159;51.072;13.526;2023-03-16T05:45:53;-0.10;93.00
33865;DHT22;20159;51.072;13.526;2023-03-16T05:48:18;0.00;92.70
33865;DHT22;20159;51.072;13.526;2023-03-16T05:50:45;-0.10;92.70
33865;DHT22;20159;51.072;13.526;2023-03-16T05:53:11;-0.10;92.80
33865;DHT22;20159;51.072;13.526;2023-03-16T05:55:36;-0.10;93.00
33865;DHT22;20159;51.072;13.526;2023-03-16T05:58:02;0.00;93.50
33865;DHT22;20159;51.072;13.526;2023-03-16T06:00:27;0.10;94.00
33865;DHT22;20159;51.072;13.526;2023-03-16T06:02:54;0.30;94.50
33865;DHT22;20159;51.072;13.526;2023-03-16T06:05:20;0.50;95.00
33865;DHT22;20159;51.072;13.526;2023-03-16T06:07:50;0.90;95.30
33865;DHT22;20159;51.072;13.526;2023-03-16T06:10:17;1.20;95.10
33865;DHT22;20159;51.072;13.526;2023-03-16T06:12:42;1.60;94.70
33865;DHT22;20159;51.072;13.526;2023-03-16T06:15:09;1.90;94.40
33865;DHT22;20159;51.072;13.526;2023-03-16T06:17:36;2.30;94.40
33865;DHT22;20159;51.072;13.526;2023-03-16T06:20:03;2.70;94.60
33865;DHT22;20159;51.072;13.526;2023-03-16T06:22:34;3.10;94.80
33865;DHT22;20159;51.072;13.526;2023-03-16T06:25:00;3.70;94.50
33865;DHT22;20159;51.072;13.526;2023-03-16T06:27:25;4.20;94.00
33865;DHT22;20159;51.072;13.526;2023-03-16T06:29:51;4.70;93.50
33865;DHT22;20159;51.072;13.526;2023-03-16T06:32:17;5.30;93.60
33865;DHT22;20159;51.072;13.526;2023-03-16T06:34:42;5.90;93.40
33865;DHT22;20159;51.072;13.526;2023-03-16T06:37:08;6.40;92.80
33865;DHT22;20159;51.072;13.526;2023-03-16T06:39:33;7.00;91.90
33865;DHT22;20159;51.072;13.526;2023-03-16T06:41:59;7.40;91.10
33865;DHT22;20159;51.072;13.526;2023-03-16T06:44:24;7.90;91.10
33865;DHT22;20159;51.072;13.526;2023-03-16T06:46:50;8.50;90.50
33865;DHT22;20159;51.072;13.526;2023-03-16T06:49:16;8.90;88.30
33865;DHT22;20159;51.072;13.526;2023-03-16T06:51:41;9.40;86.70
33865;DHT22;20159;51.072;13.526;2023-03-16T06:54:07;9.80;86.10
33865;DHT22;20159;51.072;13.526;2023-03-16T06:56:32;10.30;85.00
33865;DHT22;20159;51.072;13.526;2023-03-16T06:58:58;9.60;81.50
33865;DHT22;20159;51.072;13.526;2023-03-16T07:01:24;11.10;80.90
33865;DHT22;20159;51.072;13.526;2023-03-16T07:03:49;11.50;79.40
33865;DHT22;20159;51.072;13.526;2023-03-16T07:06:15;11.90;77.80
33865;DHT22;20159;51.072;13.526;2023-03-16T07:08:41;12.30;76.40
33865;DHT22;20159;51.072;13.526;2023-03-16T07:11:07;14.10;77.10
33865;DHT22;20159;51.072;13.526;2023-03-16T07:13:33;12.80;75.80
33865;DHT22;20159;51.072;13.526;2023-03-16T07:16:00;13.10;76.00
33865;DHT22;20159;51.072;13.526;2023-03-16T07:18:25;13.40;74.70
33865;DHT22;20159;51.072;13.526;2023-03-16T07:20:52;13.70;74.90
33865;DHT22;20159;51.072;13.526;2023-03-16T07:23:18;14.00;72.50
33865;DHT22;20159;51.072;13.526;2023-03-16T07:25:43;14.30;73.80
33865;DHT22;20159;51.072;13.526;2023-03-16T07:28:09;14.70;73.10
33865;DHT22;20159;51.072;13.526;2023-03-16T07:30:34;15.00;72.00
33865;DHT22;20159;51.072;13.526;2023-03-16T07:33:00;15.30;70.30
33865;DHT22;20159;51.072;13.526;2023-03-16T07:35:26;15.60;71.10
33865;DHT22;20159;51.072;13.526;2023-03-16T07:37:51;15.90;69.70
33865;DHT22;20159;51.072;13.526;2023-03-16T07:40:17;16.20;68.10
33865;DHT22;20159;51.072;13.526;2023-03-16T07:42:42;16.50;66.30
33865;DHT22;20159;51.072;13.526;2023-03-16T07:45:09;16.60;65.20
33865;DHT22;20159;51.072;13.526;2023-03-16T07:47:34;16.90;63.00
33865;DHT22;20159;51.072;13.526;2023-03-16T07:50:00;17.00;62.10
33865;DHT22;20159;51.072;13.526;2023-03-16T07:52:26;17.20;61.00
33865;DHT22;20159;51.072;13.526;2023-03-16T07:54:53;17.30;59.30
33865;DHT22;20159;51.072;13.526;2023-03-16T07:57:19;17.40;58.10
33865;DHT22;20159;51.072;13.526;2023-03-16T07:59:44;17.50;57.50
33865;DHT22;20159;51.072;13.526;2023-03-16T08:02:12;17.60;56.80
33865;DHT22;20159;51.072;13.526;2023-03-16T08:04:38;17.70;55.40
33865;DHT22;20159;51.072;13.526;2023-03-16T08:07:07;17.80;55.30
33865;DHT22;20159;51.072;13.526;2023-03-16T08:09:33;17.90;54.00
33865;DHT22;20159;51.072;13.526;2023-03-16T08:12:01;18.00;54.80
33865;DHT22;20159;51.072;13.526;2023-03-16T08:14:26;18.00;52.10
33865;DHT22;20159;51.072;13.526;2023-03-16T08:16:52;18.10;53.50
33865;DHT22;20159;51.072;13.526;2023-03-16T08:19:19;18.20;52.90
33865;DHT22;20159;51.072;13.526;2023-03-16T08:21:44;18.30;54.10
33865;DHT22;20159;51.072;13.526;2023-03-16T08:24:10;18.40;53.10
33865;DHT22;20159;51.072;13.526;2023-03-16T08:26:36;18.60;51.90
33865;DHT22;20159;51.072;13.526;2023-03-16T08:29:01;18.80;52.00
33865;DHT22;20159;51.072;13.526;2023-03-16T08:31:27;19.00;51.00
33865;DHT22;20159;51.072;13.526;2023-03-16T08:33:56;19.20;51.40
33865;DHT22;20159;51.072;13.526;2023-03-16T08:36:22;19.40;50.90
33865;DHT22;20159;51.072;13.526;2023-03-16T08:38:48;19.60;51.10
33865;DHT22;20159;51.072;13.526;2023-03-16T08:41:13;19.80;50.60
33865;DHT22;20159;51.072;13.526;2023-03-16T08:43:41;20.10;49.20
33865;DHT22;20159;51.072;13.526;2023-03-16T08:46:06;20.30;49.50
33865;DHT22;20159;51.072;13.526;2023-03-16T08:48:32;20.50;50.00
33865;DHT22;20159;51.072;13.526;2023-03-16T08:51:01;20.70;49.10
33865;DHT22;20159;51.072;13.526;2023-03-16T08:53:27;20.90;48.60
33865;DHT22;20159;51.072;13.526;2023-03-16T08:56:04;21.10;47.80
33865;DHT22;20159;51.072;13.526;2023-03-16T08:58:31;21.30;46.30
33865;DHT22;20159;51.072;13.526;2023-03-16T09:00:57;21.40;47.10
33865;DHT22;20159;51.072;13.526;2023-03-16T09:03:24;21.60;45.60
33865;DHT22;20159;51.072;13.526;2023-03-16T09:05:50;21.70;45.30
33865;DHT22;20159;51.072;13.526;2023-03-16T09:08:17;21.80;44.30
33865;DHT22;20159;51.072;13.526;2023-03-16T09:10:42;21.90;43.70
33865;DHT22;20159;51.072;13.526;2023-03-16T09:13:09;22.00;43.90
33865;DHT22;20159;51.072;13.526;2023-03-16T09:15:35;22.10;42.30
33865;DHT22;20159;51.072;13.526;2023-03-16T09:18:00;22.20;42.60
33865;DHT22;20159;51.072;13.526;2023-03-16T09:20:28;22.30;43.10
33865;DHT22;20159;51.072;13.526;2023-03-16T09:22:54;22.40;42.20
33865;DHT22;20159;51.072;13.526;2023-03-16T09:25:20;22.50;42.70
33865;DHT22;20159;51.072;13.526;2023-03-16T09:27:45;22.60;42.00
33865;DHT22;20159;51.072;13.526;2023-03-16T09:30:11;22.60;41.30
33865;DHT22;20159;51.072;13.526;2023-03-16T09:32:37;22.70;43.10
33865;DHT22;20159;51.072;13.526;2023-03-16T09:35:04;22.80;41.70
33865;DHT22;20159;51.072;13.526;2023-03-16T09:37:31;22.80;41.90
33865;DHT22;20159;51.072;13.526;2023-03-16T09:39:57;23.90;42.60
33865;DHT22;20159;51.072;13.526;2023-03-16T09:42:37;22.90;41.40
33865;DHT22;20159;51.072;13.526;2023-03-16T09:47:41;23.00;39.50
33865;DHT22;20159;51.072;13.526;2023-03-16T09:50:19;23.00;39.50
33865;DHT22;20159;51.072;13.526;2023-03-16T09:53:07;23.00;38.10
33865;DHT22;20159;51.072;13.526;2023-03-16T09:55:37;23.00;37.30
33865;DHT22;20159;51.072;13.526;2023-03-16T09:58:21;23.00;38.50
33865;DHT22;20159;51.072;13.526;2023-03-16T10:03:54;22.80;36.70
33865;DHT22;20159;51.072;13.526;2023-03-16T10:06:25;22.60;35.60
33865;DHT22;20159;51.072;13.526;2023-03-16T10:09:04;22.40;37.30
33865;DHT22;20159;51.072;13.526;2023-03-16T10:11:38;22.00;34.20
33865;DHT22;20159;51.072;13.526;2023-03-16T10:14:45;21.70;35.80
33865;DHT22;20159;51.072;13.526;2023-03-16T10:17:17;21.40;35.90
33865;DHT22;20159;51.072;13.526;2023-03-16T10:19:53;21.10;35.10
33865;DHT22;20159;51.072;13.526;2023-03-16T10:22:25;20.70;35.90
33865;DHT22;20159;51.072;13.526;2023-03-16T10:27:43;20.10;36.10
33865;DHT22;20159;51.072;13.526;2023-03-16T10:30:22;19.90;37.50
33865;DHT22;20159;51.072;13.526;2023-03-16T10:32:49;19.60;36.70
33865;DHT22;20159;51.072;13.526;2023-03-16T10:35:37;19.50;38.10
33865;DHT22;20159;51.072;13.526;2023-03-16T10:38:07;19.30;38.10
33865;DHT22;20159;51.072;13.526;2023-03-16T10:40:36;19.10;38.80
33865;DHT22;20159;51.072;13.526;2023-03-16T10:43:10;19.00;39.00
33865;DHT22;20159;51.072;13.526;2023-03-16T10:45:37;18.80;39.30
33865;DHT22;20159;51.072;13.526;2023-03-16T10:48:18;18.60;38.90
33865;DHT22;20159;51.072;13.526;2023-03-16T10:50:53;18.50;38.40
33865;DHT22;20159;51.072;13.526;2023-03-16T10:53:23;18.30;37.90
33865;DHT22;20159;51.072;13.526;2023-03-16T10:55:57;18.20;37.40
33865;DHT22;20159;51.072;13.526;2023-03-16T10:58:25;18.00;37.40
33865;DHT22;20159;51.072;13.526;2023-03-16T11:00:51;17.80;38.10
33865;DHT22;20159;51.072;13.526;2023-03-16T11:03:28;17.60;37.90
33865;DHT22;20159;51.072;13.526;2023-03-16T11:05:58;17.50;37.80
33865;DHT22;20159;51.072;13.526;2023-03-16T11:08:25;17.30;36.80
33865;DHT22;20159;51.072;13.526;2023-03-16T11:10:59;17.00;36.90
33865;DHT22;20159;51.072;13.526;2023-03-16T11:13:34;16.80;36.20
33865;DHT22;20159;51.072;13.526;2023-03-16T11:16:33;16.60;37.30
33865;DHT22;20159;51.072;13.526;2023-03-16T11:19:31;16.40;38.90
33865;DHT22;20159;51.072;13.526;2023-03-16T11:22:16;16.30;38.90
33865;DHT22;20159;51.072;13.526;2023-03-16T11:28:08;16.00;39.10
33865;DHT22;20159;51.072;13.526;2023-03-16T11:30:55;16.00;39.50
33865;DHT22;20159;51.072;13.526;2023-03-16T11:33:25;15.90;39.00
33865;DHT22;20159;51.072;13.526;2023-03-16T11:36:10;15.80;39.60
33865;DHT22;20159;51.072;13.526;2023-03-16T11:38:57;15.70;40.30
33865;DHT22;20159;51.072;13.526;2023-03-16T11:41:31;15.70;40.80
33865;DHT22;20159;51.072;13.526;2023-03-16T11:47:08;15.70;39.10
33865;DHT22;20159;51.072;13.526;2023-03-16T11:49:57;15.70;39.60
33865;DHT22;20159;51.072;13.526;2023-03-16T11:52:46;15.70;39.00
33865;DHT22;20159;51.072;13.526;2023-03-16T12:00:49;15.60;39.10
33865;DHT22;20159;51.072;13.526;2023-03-16T12:03:38;15.50;40.30
33865;DHT22;20159;51.072;13.526;2023-03-16T12:15:20;15.40;39.60
33865;DHT22;20159;51.072;13.526;2023-03-16T12:17:49;15.50;40.30
33865;DHT22;20159;51.072;13.526;2023-03-16T12:20:26;15.50;39.70
33865;DHT22;20159;51.072;13.526;2023-03-16T12:23:11;15.50;40.10
33865;DHT22;20159;51.072;13.526;2023-03-16T12:25:42;15.50;38.70
33865;DHT22;20159;51.072;13.526;2023-03-16T12:28:20;15.50;39.90
33865;DHT22;20159;51.072;13.526;2023-03-16T12:31:29;15.40;39.50
33865;DHT22;20159;51.072;13.526;2023-03-16T12:36:57;17.30;41.90
33865;DHT22;20159;51.072;13.526;2023-03-16T12:39:44;15.20;41.50
33865;DHT22;20159;51.072;13.526;2023-03-16T12:42:38;15.20;41.60
33865;DHT22;20159;51.072;13.526;2023-03-16T12:48:31;15.30;40.80
33865;DHT22;20159;51.072;13.526;2023-03-16T12:51:15;15.30;40.60
33865;DHT22;20159;51.072;13.526;2023-03-16T12:56:27;15.40;39.80
33865;DHT22;20159;51.072;13.526;2023-03-16T12:58:56;15.50;40.00
33865;DHT22;20159;51.072;13.526;2023-03-16T13:01:37;15.50;39.90
33865;DHT22;20159;51.072;13.526;2023-03-16T13:04:30;15.50;40.30
33865;DHT22;20159;51.072;13.526;2023-03-16T13:07:18;15.60;40.10
33865;DHT22;20159;51.072;13.526;2023-03-16T13:09:48;15.80;39.60
33865;DHT22;20159;51.072;13.526;2023-03-16T13:12:30;15.80;38.80
33865;DHT22;20159;51.072;13.526;2023-03-16T13:14:57;15.90;37.90
33865;DHT22;20159;51.072;13.526;2023-03-16T13:17:31;15.90;37.60
33865;DHT22;20159;51.072;13.526;2023-03-16T13:20:27;15.90;36.20
33865;DHT22;20159;51.072;13.526;2023-03-16T13:28:36;15.70;37.20
33865;DHT22;20159;51.072;13.526;2023-03-16T13:33:49;15.70;37.10
33865;DHT22;20159;51.072;13.526;2023-03-16T13:36:17;15.60;38.00
33865;DHT22;20159;51.072;13.526;2023-03-16T13:38:54;15.70;37.80
33865;DHT22;20159;51.072;13.526;2023-03-16T13:41:20;15.80;37.40
33865;DHT22;20159;51.072;13.526;2023-03-16T13:43:45;15.80;38.10
33865;DHT22;20159;51.072;13.526;2023-03-16T13:46:19;15.90;37.90
33865;DHT22;20159;51.072;13.526;2023-03-16T13:48:48;16.00;37.10
33865;DHT22;20159;51.072;13.526;2023-03-16T13:51:16;16.10;37.30
33865;DHT22;20159;51.072;13.526;2023-03-16T13:53:43;16.20;36.80
33865;DHT22;20159;51.072;13.526;2023-03-16T13:56:13;16.30;37.20
33865;DHT22;20159;51.072;13.526;2023-03-16T13:58:39;16.30;36.60
33865;DHT22;20159;51.072;13.526;2023-03-16T14:01:27;16.40;36.70
33865;DHT22;20159;51.072;13.526;2023-03-16T14:04:01;16.40;36.40
33865;DHT22;20159;51.072;13.526;2023-03-16T14:06:33;16.40;37.10
33865;DHT22;20159;51.072;13.526;2023-03-16T14:09:12;16.40;37.40
33865;DHT22;20159;51.072;13.526;2023-03-16T14:11:39;16.40;37.00
33865;DHT22;20159;51.072;13.526;2023-03-16T14:14:14;16.30;37.20
33865;DHT22;20159;51.072;13.526;2023-03-16T14:16:40;16.30;36.90
33865;DHT22;20159;51.072;13.526;2023-03-16T14:19:23;16.30;38.40
33865;DHT22;20159;51.072;13.526;2023-03-16T14:22:03;16.20;37.30
33865;DHT22;20159;51.072;13.526;2023-03-16T14:24:36;16.20;36.60
33865;DHT22;20159;51.072;13.526;2023-03-16T14:27:24;16.10;36.80
33865;DHT22;20159;51.072;13.526;2023-03-16T14:29:53;16.10;38.00
33865;DHT22;20159;51.072;13.526;2023-03-16T14:32:27;16.10;38.70
33865;DHT22;20159;51.072;13.526;2023-03-16T14:35:10;16.10;38.60
33865;DHT22;20159;51.072;13.526;2023-03-16T14:37:37;16.20;37.90
33865;DHT22;20159;51.072;13.526;2023-03-16T14:40:07;16.20;38.00
33865;DHT22;20159;51.072;13.526;2023-03-16T14:42:33;16.30;37.30
33865;DHT22;20159;51.072;13.526;2023-03-16T14:45:02;16.30;38.00
33865;DHT22;20159;51.072;13.526;2023-03-16T14:47:36;16.30;36.60
33865;DHT22;20159;51.072;13.526;2023-03-16T14:50:07;16.30;37.60
33865;DHT22;20159;51.072;13.526;2023-03-16T14:52:35;15.90;37.10
33865;DHT22;20159;51.072;13.526;2023-03-16T14:55:10;16.30;37.40
33865;DHT22;20159;51.072;13.526;2023-03-16T14:57:36;16.20;36.10
33865;DHT22;20159;51.072;13.526;2023-03-16T15:00:01;16.10;36.50
33865;DHT22;20159;51.072;13.526;2023-03-16T15:02:30;16.00;37.40
33865;DHT22;20159;51.072;13.526;2023-03-16T15:04:59;15.90;36.90
33865;DHT22;20159;51.072;13.526;2023-03-16T15:07:31;15.80;36.50
33865;DHT22;20159;51.072;13.526;2023-03-16T15:10:36;15.70;37.00
33865;DHT22;20159;51.072;13.526;2023-03-16T15:13:02;15.60;37.20
33865;DHT22;20159;51.072;13.526;2023-03-16T15:15:38;15.50;37.60
33865;DHT22;20159;51.072;13.526;2023-03-16T15:18:07;15.40;38.40
33865;DHT22;20159;51.072;13.526;2023-03-16T15:20:36;15.30;37.90
33865;DHT22;20159;51.072;13.526;2023-03-16T15:23:03;15.20;38.00
33865;DHT22;20159;51.072;13.526;2023-03-16T15:25:37;15.20;37.90
33865;DHT22;20159;51.072;13.526;2023-03-16T15:28:12;15.10;37.80
33865;DHT22;20159;51.072;13.526;2023-03-16T15:30:38;15.00;38.10
33865;DHT22;20159;51.072;13.526;2023-03-16T15:33:05;15.00;38.20
33865;DHT22;20159;51.072;13.526;2023-03-16T15:35:31;14.90;38.30
33865;DHT22;20159;51.072;13.526;2023-03-16T15:37:56;14.90;38.30
33865;DHT22;20159;51.072;13.526;2023-03-16T15:40:24;14.80;38.60
33865;DHT22;20159;51.072;13.526;2023-03-16T15:42:50;14.80;38.70
33865;DHT22;20159;51.072;13.526;2023-03-16T15:45:19;14.80;38.60
33865;DHT22;20159;51.072;13.526;2023-03-16T15:47:46;14.70;39.00
33865;DHT22;20159;51.072;13.526;2023-03-16T15:50:14;14.70;39.40
33865;DHT22;20159;51.072;13.526;2023-03-16T15:52:43;14.60;39.60
33865;DHT22;20159;51.072;13.526;2023-03-16T15:55:21;14.50;39.60
33865;DHT22;20159;51.072;13.526;2023-03-16T15:57:48;14.40;39.90
33865;DHT22;20159;51.072;13.526;2023-03-16T16:00:25;14.30;39.60
33865;DHT22;20159;51.072;13.526;2023-03-16T16:02:51;14.30;39.80
33865;DHT22;20159;51.072;13.526;2023-03-16T16:05:17;14.20;39.50
33865;DHT22;20159;51.072;13.526;2023-03-16T16:07:43;14.20;40.20
33865;DHT22;20159;51.072;13.526;2023-03-16T16:10:11;14.10;40.10
33865;DHT22;20159;51.072;13.526;2023-03-16T16:12:37;14.10;41.00
33865;DHT22;20159;51.072;13.526;2023-03-16T16:17:39;14.00;40.70
33865;DHT22;20159;51.072;13.526;2023-03-16T16:20:30;13.90;40.90
33865;DHT22;20159;51.072;13.526;2023-03-16T16:22:57;13.80;41.00
33865;DHT22;20159;51.072;13.526;2023-03-16T16:25:33;13.70;40.70
33865;DHT22;20159;51.072;13.526;2023-03-16T16:27:59;13.50;40.70
33865;DHT22;20159;51.072;13.526;2023-03-16T16:30:27;13.30;41.20